Archival Weather

Chicago O'Hare International

Chicago, Illinois (KORD)

Report from: Thursday, December 7, 2023 1:51 AM CST
Current time: Wednesday, April 24, 2024 1:37 PM CDT

Current weather – Weather history – Daily summaries
Weather forecast

Temperature3.3°C (37.9°F)
Wind chill-0.9°C (30.5°F)
Dew point-1.1°C (30.0°F)
Winds 10 kts (5.1 m/s, 11.5 mph) Southwest (220°)
Wind gusts 21 kts (10.8 m/s, 24.2 mph)
Visibility10 mi. (16.1 km)
Clouds Few clouds 14,000 ft. (4,267 m)
Scattered clouds 25,000 ft. (7,620 m)
Altimeter29.92 in.Hg (1013 mB)
Relative humidity73 %
Density altitude-1,352 ft. (-412 m)
Sea-level pressure101.4 kPa (1014 mB, 29.94 in.Hg)
Remarks Automated weather observing station with precipitation discriminator
Flight conditions Visual Meteorological Conditions
Raw dataKORD 070751Z 22010G21KT 10SM FEW140 SCT250 03/M01 A2992 RMK AO2 SLP138 T00331011
An error has occurred. This application may no longer respond until reloaded. Reload 🗙